Terminal Aerodrome Forecast
Issued by NWS Central Illinois

Home | Current Version | Previous Version | Text Only | Print | Product List | Glossary On
Versions: 1 2 3 4 5 6 7 8 9 10 11 12 13 14 15 16 17 18 19 20 21 22 23 24 25 26 27 28 29 30 31 32 33
000
FTUS43 KILX 221731
TAFPIA
TAF
KPIA 221731Z 2218/2318 21010KT 5SM BR BKN003
     FM221900 21010KT P6SM SCT015
     FM230500 22007KT 4SM BR SCT250
     FM230800 33005KT 1 1/2SM BR SCT015
     FM231700 06006KT P6SM BKN110=

USA.gov is the U.S. government's official web portal to all federal, state and local government web resources and services.